createdAt,value
2022-12-23T00:00:11.479Z,29.70
2022-12-23T00:00:49.027Z,31.35
2022-12-23T00:01:21.335Z,31.40
2022-12-23T00:01:56.220Z,31.17
2022-12-23T00:02:29.836Z,29.83
2022-12-23T00:03:02.322Z,29.98
2022-12-23T00:03:35.327Z,29.30
2022-12-23T00:04:11.214Z,29.45
2022-12-23T00:04:43.609Z,29.08
2022-12-23T00:05:15.853Z,30.13
2022-12-23T00:05:50.523Z,29.67
2022-12-23T00:06:22.646Z,30.83
2022-12-23T00:06:57.333Z,30.58
2022-12-23T00:07:29.459Z,31.17
2022-12-23T00:08:01.546Z,29.85
2022-12-23T00:08:37.625Z,30.38
2022-12-23T00:09:09.690Z,29.65
2022-12-23T00:09:41.798Z,29.00
2022-12-23T00:10:16.479Z,29.55
2022-12-23T00:10:49.577Z,30.52
2022-12-23T00:11:21.699Z,29.05
2022-12-23T00:12:08.858Z,29.42
2022-12-23T00:13:01.563Z,29.45
2022-12-23T00:13:48.676Z,28.40
2022-12-23T00:14:35.846Z,27.10
2022-12-23T00:15:11.830Z,27.38
2022-12-23T00:15:46.578Z,28.73
2022-12-23T00:16:18.751Z,28.90
2022-12-23T00:16:53.667Z,27.98
2022-12-23T00:17:26.116Z,27.85
2022-12-23T00:17:58.191Z,29.80
2022-12-23T00:18:30.485Z,27.75
2022-12-23T00:19:05.223Z,27.02
2022-12-23T00:19:37.312Z,28.40
2022-12-23T00:20:12.325Z,26.52
2022-12-23T00:20:44.374Z,29.40
2022-12-23T00:21:20.225Z,29.05
2022-12-23T00:21:52.309Z,29.63
2022-12-23T00:22:44.409Z,31.33
2022-12-23T00:23:19.072Z,28.17
2022-12-23T00:23:52.211Z,29.25
2022-12-23T00:24:24.470Z,27.40
2022-12-23T00:24:59.145Z,28.45
2022-12-23T00:25:45.023Z,28.67
2022-12-23T00:26:21.992Z,28.65
2022-12-23T00:26:54.763Z,27.38
2022-12-23T00:27:29.656Z,28.77
2022-12-23T00:28:03.929Z,29.08
2022-12-23T00:28:38.588Z,29.55
2022-12-23T00:29:10.678Z,29.65
2022-12-23T00:29:42.784Z,26.95
2022-12-23T00:30:17.643Z,27.15
2022-12-23T00:30:54.285Z,27.80
2022-12-23T00:31:29.305Z,28.15
2022-12-23T00:32:01.550Z,26.48
2022-12-23T00:32:33.736Z,27.00
2022-12-23T00:33:06.064Z,27.42
2022-12-23T00:33:42.422Z,27.48
2022-12-23T00:34:14.622Z,25.35
2022-12-23T00:34:46.852Z,27.20
2022-12-23T00:35:21.540Z,27.27
2022-12-23T00:35:54.296Z,26.85
2022-12-23T00:36:31.919Z,26.35
2022-12-23T00:37:04.070Z,27.33
2022-12-23T00:37:36.156Z,28.83
2022-12-23T00:38:08.314Z,28.30
2022-12-23T00:38:55.512Z,26.15
2022-12-23T00:39:42.676Z,27.52
2022-12-23T00:40:30.726Z,26.77
2022-12-23T00:41:17.918Z,22.95
2022-12-23T00:42:05.068Z,26.70
2022-12-23T00:42:52.193Z,25.70
2022-12-23T00:43:27.106Z,26.00
2022-12-23T00:43:59.382Z,27.73
2022-12-23T00:44:31.820Z,25.55
2022-12-23T00:45:18.099Z,25.42
2022-12-23T00:45:53.123Z,26.63
2022-12-23T00:46:25.491Z,25.27
2022-12-23T00:47:00.575Z,26.50
2022-12-23T00:47:47.701Z,25.33
2022-12-23T00:48:34.855Z,26.45
2022-12-23T00:49:22.401Z,24.63
2022-12-23T00:49:54.499Z,23.83
2022-12-23T00:50:27.442Z,25.83
2022-12-23T00:51:02.196Z,26.15
2022-12-23T00:51:34.487Z,26.83
2022-12-23T00:52:09.218Z,25.73
2022-12-23T00:52:41.339Z,27.50
2022-12-23T00:53:16.079Z,26.38
2022-12-23T00:53:48.161Z,25.25
2022-12-23T00:54:20.406Z,26.33
2022-12-23T00:54:55.106Z,28.23
2022-12-23T00:55:27.338Z,27.63
2022-12-23T00:55:59.443Z,26.63
2022-12-23T00:56:34.509Z,27.55
2022-12-23T00:57:06.885Z,26.30
2022-12-23T00:57:38.944Z,27.48
2022-12-23T00:58:13.628Z,27.73
2022-12-23T00:58:45.727Z,26.13
2022-12-23T00:59:17.924Z,25.92
2022-12-23T00:59:52.615Z,26.98
2022-12-23T01:00:47.643Z,27.88
2022-12-23T01:01:37.794Z,25.92
2022-12-23T01:02:26.481Z,26.27
2022-12-23T01:03:13.865Z,25.52
2022-12-23T01:04:01.075Z,25.13
2022-12-23T01:04:48.382Z,24.17
2022-12-23T01:05:35.896Z,25.77
2022-12-23T01:06:10.663Z,24.08
2022-12-23T01:06:42.807Z,25.33
2022-12-23T01:07:14.993Z,25.60
2022-12-23T01:07:49.655Z,25.42
2022-12-23T01:08:21.756Z,25.00
2022-12-23T01:08:53.868Z,25.63
2022-12-23T01:09:29.004Z,26.05
2022-12-23T01:10:01.136Z,26.70
2022-12-23T01:10:34.905Z,25.75
2022-12-23T01:11:11.391Z,25.20
2022-12-23T01:11:43.518Z,24.52
2022-12-23T01:12:15.767Z,25.33
2022-12-23T01:12:50.501Z,26.45
2022-12-23T01:13:22.665Z,26.60
2022-12-23T01:13:54.751Z,26.10
2022-12-23T01:14:29.642Z,25.35
2022-12-23T01:15:01.854Z,24.23
2022-12-23T01:15:34.348Z,25.27
2022-12-23T01:16:13.481Z,25.13
2022-12-23T01:16:54.342Z,25.20
2022-12-23T01:17:26.547Z,25.75
2022-12-23T01:17:58.976Z,24.48
2022-12-23T01:18:33.721Z,25.73
2022-12-23T01:19:06.018Z,24.92
2022-12-23T01:19:38.468Z,24.67
2022-12-23T01:20:12.109Z,25.30
2022-12-23T01:20:46.828Z,26.58
2022-12-23T01:21:18.927Z,23.63
2022-12-23T01:21:51.051Z,25.08
2022-12-23T01:22:25.720Z,24.73
2022-12-23T01:22:57.813Z,25.55
2022-12-23T01:23:30.146Z,25.35
2022-12-23T01:24:05.192Z,25.00
2022-12-23T01:24:37.377Z,24.92
2022-12-23T01:25:10.208Z,24.55
2022-12-23T01:25:44.874Z,24.27
2022-12-23T01:26:17.034Z,25.17
2022-12-23T01:26:49.210Z,24.98
2022-12-23T01:27:23.957Z,24.77
2022-12-23T01:27:56.072Z,24.55
2022-12-23T01:28:29.239Z,23.15
2022-12-23T01:29:05.065Z,24.52
2022-12-23T01:29:37.155Z,23.52
2022-12-23T01:30:10.315Z,23.92
2022-12-23T01:30:44.995Z,24.65
2022-12-23T01:31:17.106Z,24.33
2022-12-23T01:31:52.040Z,25.67
2022-12-23T01:32:26.749Z,24.83
2022-12-23T01:32:58.844Z,25.15
2022-12-23T01:33:32.272Z,23.08
2022-12-23T01:34:07.058Z,24.42
2022-12-23T01:34:39.202Z,20.67
2022-12-23T01:35:11.322Z,24.13
2022-12-23T01:35:46.120Z,24.55
2022-12-23T01:36:18.702Z,24.95
2022-12-23T01:36:50.832Z,24.50
2022-12-23T01:37:25.854Z,24.65
2022-12-23T01:37:57.935Z,25.05
2022-12-23T01:38:30.497Z,24.45
2022-12-23T01:39:05.208Z,24.13
2022-12-23T01:39:37.326Z,24.55
2022-12-23T01:40:10.483Z,25.15
2022-12-23T01:40:47.509Z,24.27
2022-12-23T01:41:37.174Z,24.55
2022-12-23T01:42:28.199Z,23.63
2022-12-23T01:43:00.319Z,23.65
2022-12-23T01:43:46.614Z,24.30
2022-12-23T01:45:04.383Z,24.27
2022-12-23T01:45:36.540Z,23.63
2022-12-23T01:46:08.695Z,24.40
2022-12-23T01:46:43.455Z,22.10
2022-12-23T01:47:22.587Z,24.20
2022-12-23T01:48:00.402Z,22.67
2022-12-23T01:48:32.488Z,23.38
2022-12-23T01:49:04.587Z,23.42
2022-12-23T01:49:39.495Z,23.27
2022-12-23T01:50:14.958Z,23.13
2022-12-23T01:50:54.292Z,23.70
2022-12-23T01:51:29.200Z,25.08
2022-12-23T01:52:01.368Z,24.25
2022-12-23T01:52:38.872Z,24.73
2022-12-23T01:53:15.340Z,22.88
2022-12-23T01:53:50.590Z,23.05
2022-12-23T01:54:25.282Z,22.73
2022-12-23T01:54:57.956Z,24.67
2022-12-23T01:55:35.930Z,23.48
2022-12-23T01:56:12.212Z,22.70
2022-12-23T01:56:44.454Z,22.17
2022-12-23T01:57:19.419Z,23.52
2022-12-23T01:57:53.396Z,22.80
2022-12-23T01:58:33.291Z,23.05
2022-12-23T01:59:08.994Z,23.33
2022-12-23T01:59:57.304Z,23.08
2022-12-23T02:00:53.163Z,21.58
2022-12-23T02:01:40.538Z,22.27
2022-12-23T02:02:27.920Z,22.80
2022-12-23T02:04:07.687Z,24.30
2022-12-23T02:04:40.069Z,22.70
2022-12-23T02:05:12.612Z,24.33
2022-12-23T02:05:46.010Z,23.55
2022-12-23T02:06:37.329Z,23.60
2022-12-23T02:07:26.327Z,24.23
2022-12-23T02:08:13.545Z,23.33
2022-12-23T02:09:00.628Z,23.20
2022-12-23T02:09:37.068Z,22.55
2022-12-23T02:10:10.236Z,23.38
2022-12-23T02:11:01.110Z,23.88
2022-12-23T02:11:55.839Z,23.95
2022-12-23T02:12:41.943Z,22.95
2022-12-23T02:13:24.117Z,23.90
2022-12-23T02:14:29.426Z,23.67
2022-12-23T02:15:53.091Z,24.55
2022-12-23T02:16:25.993Z,24.67
2022-12-23T02:17:05.988Z,24.00
2022-12-23T02:17:53.515Z,24.33
2022-12-23T02:18:47.027Z,24.75
2022-12-23T02:19:41.080Z,23.85
2022-12-23T02:20:46.135Z,24.10
2022-12-23T02:21:44.843Z,23.52
2022-12-23T02:22:34.011Z,25.40
2022-12-23T02:23:35.605Z,23.83
2022-12-23T02:24:37.686Z,23.88
2022-12-23T02:25:45.973Z,23.83
2022-12-23T02:26:41.579Z,24.60
2022-12-23T02:27:19.989Z,23.45
2022-12-23T02:28:08.872Z,25.25
2022-12-23T02:29:09.645Z,24.92
2022-12-23T02:30:43.421Z,24.77
2022-12-23T02:31:24.186Z,24.13
2022-12-23T08:13:56.032Z,33.72
2022-12-23T08:14:28.186Z,32.67
2022-12-23T08:15:02.919Z,30.65
2022-12-23T08:15:34.994Z,36.08
2022-12-23T08:16:08.605Z,31.05
2022-12-23T08:16:44.291Z,30.63
2022-12-23T08:17:16.718Z,31.88
2022-12-23T08:17:48.918Z,27.88
2022-12-23T08:18:23.573Z,36.13
2022-12-23T08:18:55.713Z,32.17
2022-12-23T08:19:30.381Z,30.80
2022-12-23T08:20:02.578Z,32.72
2022-12-23T08:20:34.650Z,31.58
2022-12-23T08:21:11.634Z,33.33
2022-12-23T08:21:43.691Z,34.15
2022-12-23T08:22:16.004Z,28.92
2022-12-23T08:22:50.736Z,25.83
2022-12-23T08:23:25.101Z,32.03
2022-12-23T08:23:57.587Z,26.40
2022-12-23T08:24:32.344Z,30.20
2022-12-23T08:25:05.266Z,32.22
2022-12-23T08:25:37.392Z,32.80
2022-12-23T08:26:14.222Z,33.33
2022-12-23T08:26:46.281Z,34.80
2022-12-23T08:27:21.033Z,30.95
2022-12-23T08:27:53.110Z,29.67
2022-12-23T08:28:25.316Z,31.88
2022-12-23T08:29:03.551Z,33.28
2022-12-23T08:29:36.629Z,32.28
2022-12-23T08:30:10.513Z,34.10
2022-12-23T08:30:45.345Z,32.97
2022-12-23T08:31:20.376Z,31.45
2022-12-23T08:31:54.215Z,31.38
2022-12-23T08:32:29.876Z,33.88
2022-12-23T08:33:01.974Z,32.70
2022-12-23T08:33:35.040Z,33.58
2022-12-23T08:34:10.699Z,30.52
2022-12-23T08:34:42.850Z,32.08
2022-12-23T08:35:14.980Z,29.38
2022-12-23T08:35:49.787Z,31.27
2022-12-23T08:36:23.920Z,30.23
2022-12-23T08:36:56.145Z,32.13
2022-12-23T08:37:30.799Z,31.38
2022-12-23T08:38:02.859Z,33.58
2022-12-23T08:38:35.605Z,31.52
2022-12-23T08:39:13.075Z,30.77
2022-12-23T08:39:45.267Z,32.40
2022-12-23T08:40:19.978Z,30.15
2022-12-23T08:41:01.074Z,33.40
2022-12-23T08:41:39.109Z,34.63
2022-12-23T08:42:11.273Z,32.97
2022-12-23T08:42:45.995Z,32.30
2022-12-23T08:43:18.063Z,32.75
2022-12-23T08:43:50.653Z,28.90
2022-12-23T08:44:28.672Z,32.03
2022-12-23T08:45:01.188Z,30.15
2022-12-23T08:45:37.330Z,35.92
2022-12-23T08:46:12.568Z,34.50
2022-12-23T08:46:45.559Z,33.70
2022-12-23T08:47:20.318Z,31.92
2022-12-23T08:47:52.537Z,32.95
2022-12-23T08:48:24.777Z,32.70
2022-12-23T08:48:59.795Z,30.00
2022-12-23T08:49:31.920Z,30.15
2022-12-23T08:50:04.766Z,37.92
2022-12-23T08:50:43.721Z,30.70
2022-12-23T08:51:17.850Z,32.35
2022-12-23T08:51:50.087Z,32.72
2022-12-23T08:52:24.750Z,32.75
2022-12-23T08:52:56.826Z,30.83
2022-12-23T08:53:29.253Z,32.13
2022-12-23T08:54:04.190Z,32.17
2022-12-23T08:54:36.321Z,32.85
2022-12-23T08:55:11.727Z,31.85
2022-12-23T08:55:47.015Z,31.52
2022-12-23T08:56:24.186Z,33.30
2022-12-23T08:56:56.376Z,30.60
2022-12-23T08:57:28.459Z,32.20
2022-12-23T08:58:03.105Z,30.92
2022-12-23T08:58:38.314Z,32.83
2022-12-23T08:59:19.637Z,32.30
2022-12-23T08:59:54.805Z,31.52
2022-12-23T09:00:27.167Z,31.58
2022-12-23T09:01:06.180Z,33.55
2022-12-23T09:01:38.357Z,30.92
2022-12-23T09:02:14.556Z,31.30
2022-12-23T09:02:47.080Z,28.35
2022-12-23T09:03:19.451Z,30.88
2022-12-23T09:03:55.120Z,31.67
2022-12-23T09:04:27.314Z,31.20
2022-12-23T09:05:02.043Z,31.58
2022-12-23T09:05:38.972Z,31.35
2022-12-23T09:06:16.416Z,32.58
2022-12-23T09:06:48.523Z,31.67
2022-12-23T09:07:23.187Z,34.33
2022-12-23T09:07:55.300Z,34.17
2022-12-23T09:08:27.478Z,28.58
2022-12-23T09:09:02.338Z,33.40
2022-12-23T09:09:34.450Z,30.10
2022-12-23T09:10:10.635Z,32.70
2022-12-23T09:10:43.657Z,34.10
2022-12-23T09:11:20.515Z,35.10
2022-12-23T09:11:52.576Z,33.15
2022-12-23T09:12:24.691Z,33.75
2022-12-23T09:12:59.383Z,34.45
2022-12-23T09:13:35.563Z,37.75
2022-12-23T09:14:10.276Z,36.67
2022-12-23T09:14:47.745Z,33.15
2022-12-23T09:15:22.541Z,32.35
2022-12-23T09:15:55.144Z,33.70
2022-12-23T09:16:30.729Z,30.85
2022-12-23T09:17:02.920Z,29.52
2022-12-23T09:17:37.838Z,31.45
2022-12-23T09:18:10.328Z,32.20
2022-12-23T09:18:42.590Z,31.30
2022-12-23T09:19:17.336Z,33.42
2022-12-23T09:19:53.022Z,31.08
2022-12-23T09:20:25.457Z,32.78
2022-12-23T09:21:01.575Z,33.28
2022-12-23T09:21:33.936Z,30.90
2022-12-23T09:22:06.057Z,33.60
2022-12-23T09:22:40.856Z,32.85
2022-12-23T09:23:13.167Z,33.45
2022-12-23T09:23:45.475Z,32.17
2022-12-23T09:24:20.185Z,33.80
2022-12-23T09:24:52.245Z,31.67
2022-12-23T09:25:24.391Z,32.78
2022-12-23T09:25:59.267Z,33.53
2022-12-23T09:26:32.467Z,34.22
2022-12-23T09:27:04.724Z,33.72
2022-12-23T09:27:39.445Z,34.38
2022-12-23T09:28:12.024Z,35.28
2022-12-23T09:28:44.091Z,30.98
2022-12-23T09:29:18.753Z,29.17
2022-12-23T09:29:51.069Z,29.33
2022-12-23T09:30:25.758Z,30.92
2022-12-23T09:31:00.580Z,30.73
2022-12-23T09:31:37.159Z,30.23
2022-12-23T09:32:12.489Z,30.67
2022-12-23T09:32:44.616Z,29.05
2022-12-23T09:33:19.886Z,28.40
2022-12-23T09:33:53.857Z,32.28
2022-12-23T09:34:26.761Z,28.35
2022-12-23T09:35:01.516Z,27.75
2022-12-23T09:35:33.596Z,29.45
2022-12-23T09:36:06.641Z,29.65
2022-12-23T09:36:41.400Z,29.63
2022-12-23T09:37:16.587Z,25.60
2022-12-23T09:37:51.264Z,29.50
2022-12-23T09:38:23.346Z,29.50
2022-12-23T09:38:56.325Z,30.55
2022-12-23T09:39:31.146Z,29.00
2022-12-23T09:40:04.334Z,30.27
2022-12-23T09:40:41.784Z,30.73
2022-12-23T09:41:27.433Z,29.48
2022-12-23T09:42:09.979Z,29.95
2022-12-23T09:42:57.565Z,28.10
2022-12-23T09:43:42.539Z,29.65
2022-12-23T09:44:43.278Z,28.05
2022-12-23T09:46:06.981Z,28.00
2022-12-23T09:46:48.132Z,31.27
2022-12-23T09:47:23.376Z,30.02
2022-12-23T09:47:59.400Z,31.42
2022-12-23T09:48:36.424Z,29.90
2022-12-23T09:49:16.636Z,32.38
2022-12-23T09:49:53.427Z,30.17
2022-12-23T09:50:28.873Z,30.10
2022-12-23T09:51:05.707Z,33.80
2022-12-23T09:51:38.469Z,31.85
2022-12-23T09:52:16.731Z,32.83
2022-12-23T09:53:00.014Z,32.90
2022-12-23T09:53:45.262Z,31.17
2022-12-23T09:54:24.074Z,28.30
2022-12-23T09:54:56.571Z,29.58
2022-12-23T09:55:38.116Z,31.30
2022-12-23T09:56:22.473Z,31.33
2022-12-23T09:56:58.604Z,31.50
2022-12-23T09:57:43.253Z,31.17
2022-12-23T09:58:23.397Z,32.38
2022-12-23T09:59:06.143Z,31.00
2022-12-23T09:59:51.665Z,32.70
2022-12-23T10:00:27.125Z,31.55
2022-12-23T10:01:14.048Z,32.67
2022-12-23T10:01:55.236Z,36.42
2022-12-23T10:02:39.580Z,34.08
2022-12-23T10:03:23.400Z,34.38
2022-12-23T10:04:32.143Z,33.92
2022-12-23T10:05:15.062Z,30.77
2022-12-23T10:05:59.237Z,29.42
2022-12-23T10:06:37.147Z,30.63
2022-12-23T10:07:23.908Z,30.15
2022-12-23T10:08:04.536Z,31.40
2022-12-23T10:08:40.454Z,29.17
2022-12-23T10:09:17.619Z,33.47
2022-12-23T10:09:53.291Z,33.80
2022-12-23T10:10:35.405Z,31.63
2022-12-23T10:11:14.340Z,32.60
2022-12-23T10:11:53.420Z,32.63
2022-12-23T10:12:39.777Z,32.25
2022-12-23T10:13:27.997Z,28.30
2022-12-23T10:14:03.290Z,34.10
2022-12-23T10:14:39.402Z,31.25
2022-12-23T10:15:20.920Z,29.95
2022-12-23T10:15:59.020Z,31.90
2022-12-23T10:16:39.354Z,33.15
2022-12-23T10:17:18.938Z,35.45
2022-12-23T10:17:55.725Z,31.55
2022-12-23T10:18:43.774Z,34.13
2022-12-23T10:19:21.318Z,33.53
2022-12-23T10:20:00.437Z,31.25
2022-12-23T10:20:39.921Z,32.65
2022-12-23T10:21:19.394Z,32.78
2022-12-23T10:21:55.420Z,32.42
2022-12-23T10:22:38.507Z,31.33
2022-12-23T10:23:17.115Z,33.08
2022-12-23T10:23:55.276Z,33.33
2022-12-23T10:24:33.702Z,31.05
2022-12-23T10:25:14.231Z,28.83
2022-12-23T10:25:53.723Z,30.50
2022-12-23T10:26:32.265Z,30.55
2022-12-23T10:27:14.721Z,30.23
2022-12-23T10:27:46.843Z,33.00
2022-12-23T10:28:19.197Z,30.75
2022-12-23T10:29:01.615Z,33.45
2022-12-23T10:29:34.681Z,31.02
2022-12-23T10:30:34.213Z,33.70
2022-12-23T10:31:39.407Z,32.10
2022-12-23T10:32:22.762Z,29.27
2022-12-23T10:33:06.733Z,30.35
2022-12-23T10:33:46.959Z,31.95
2022-12-23T10:34:29.969Z,34.00
2022-12-23T10:35:11.821Z,32.72
2022-12-23T10:35:54.370Z,34.63
2022-12-23T10:36:34.299Z,34.35
2022-12-23T10:37:14.761Z,34.30
2022-12-23T10:38:42.753Z,33.28
2022-12-23T10:39:25.039Z,31.85
2022-12-23T10:40:12.268Z,30.70
2022-12-23T10:40:52.644Z,32.22
2022-12-23T10:42:18.090Z,29.30
2022-12-23T10:43:01.592Z,30.77
2022-12-23T10:43:45.952Z,29.52
2022-12-23T10:44:39.243Z,30.65
2022-12-23T10:45:29.024Z,29.38
2022-12-23T10:46:13.285Z,32.22
2022-12-23T10:46:56.281Z,33.35
2022-12-23T10:47:48.529Z,33.40
2022-12-23T10:48:34.489Z,32.63
2022-12-23T10:49:18.724Z,33.63
2022-12-23T10:50:02.558Z,32.00
2022-12-23T10:50:56.788Z,32.15
2022-12-23T10:51:32.502Z,34.75
2022-12-23T10:52:12.138Z,35.08
2022-12-23T10:52:49.061Z,33.00
2022-12-23T10:53:31.316Z,34.20
2022-12-23T10:54:12.604Z,37.42
2022-12-23T10:54:46.499Z,38.83
2022-12-23T10:55:26.124Z,39.97
2022-12-23T10:56:04.315Z,39.47
2022-12-23T10:56:37.276Z,37.90
2022-12-23T10:57:12.438Z,41.90
2022-12-23T10:57:44.632Z,38.20
2022-12-23T10:58:18.575Z,34.65
2022-12-23T10:58:57.898Z,37.58
2022-12-23T10:59:34.987Z,38.45
2022-12-23T11:00:20.951Z,33.75
2022-12-23T11:00:55.376Z,40.53
2022-12-23T11:01:32.006Z,35.47
2022-12-23T11:02:22.696Z,39.22
2022-12-23T11:03:46.427Z,35.78
2022-12-23T11:04:28.425Z,42.90
2022-12-23T11:05:00.601Z,39.28
2022-12-23T11:05:34.609Z,37.85
2022-12-23T11:06:11.344Z,37.53
2022-12-23T11:06:46.749Z,38.15
2022-12-23T11:08:17.199Z,34.25
2022-12-23T11:08:50.283Z,35.47
2022-12-23T11:09:27.962Z,31.55
2022-12-23T11:10:04.972Z,36.03
2022-12-23T11:10:37.568Z,36.47
2022-12-23T11:11:12.296Z,34.13
2022-12-23T11:11:59.979Z,33.35
2022-12-23T11:12:43.814Z,35.90
2022-12-23T11:13:25.897Z,30.50
2022-12-23T11:14:00.563Z,30.42
2022-12-23T11:14:38.337Z,33.33
2022-12-23T11:15:26.880Z,31.77
2022-12-23T11:16:15.069Z,30.67
2022-12-23T11:16:47.300Z,30.40
2022-12-23T11:17:25.340Z,30.98
2022-12-23T11:18:05.818Z,32.75
2022-12-23T11:19:16.018Z,31.60
2022-12-23T11:19:48.642Z,31.63
2022-12-23T11:20:23.725Z,32.13
2022-12-23T11:21:04.234Z,32.53
2022-12-23T11:22:22.598Z,29.45
2022-12-23T11:23:01.824Z,29.90
2022-12-23T11:23:36.811Z,33.53
2022-12-23T11:24:23.168Z,31.52
2022-12-23T11:24:55.408Z,31.65
2022-12-23T11:25:31.196Z,30.38
2022-12-23T11:26:09.160Z,34.78
2022-12-23T11:26:41.453Z,30.92
2022-12-23T11:27:18.840Z,33.13
2022-12-23T11:27:53.380Z,31.35
2022-12-23T11:28:28.417Z,32.58
2022-12-23T11:29:07.271Z,32.67
2022-12-23T11:29:47.693Z,34.30
2022-12-23T11:30:20.266Z,33.00
2022-12-23T11:30:58.495Z,33.78
2022-12-23T11:31:35.373Z,32.15
2022-12-23T11:32:19.850Z,32.03
2022-12-23T11:32:52.189Z,30.55
2022-12-23T11:33:32.667Z,31.83
2022-12-23T11:34:07.463Z,32.28
2022-12-23T11:34:42.309Z,32.08
2022-12-23T11:35:25.916Z,31.80
2022-12-23T11:36:03.456Z,32.05
2022-12-23T11:36:38.311Z,33.33
2022-12-23T11:37:25.095Z,32.45
2022-12-23T11:38:01.338Z,32.15
2022-12-23T11:38:35.374Z,34.50
2022-12-23T11:39:25.739Z,31.63
2022-12-23T11:39:57.922Z,33.65
2022-12-23T11:40:35.369Z,33.17
2022-12-23T11:41:08.372Z,31.90
2022-12-23T11:41:44.213Z,30.63
2022-12-23T11:42:23.155Z,30.85
2022-12-23T11:42:58.861Z,31.50
2022-12-23T11:43:32.704Z,32.10
2022-12-23T11:44:13.036Z,33.92
2022-12-23T11:45:25.575Z,32.75
2022-12-23T11:46:25.482Z,31.02
2022-12-23T11:47:00.847Z,32.35
2022-12-23T11:47:38.093Z,32.33
2022-12-23T11:48:32.910Z,32.95
2022-12-23T11:49:16.389Z,32.38
2022-12-23T11:49:52.715Z,36.35
2022-12-23T11:50:31.721Z,35.85
2022-12-23T11:51:07.223Z,34.47
2022-12-23T11:51:39.309Z,32.67
2022-12-23T11:52:13.455Z,37.33
2022-12-23T11:52:54.563Z,33.00
2022-12-23T11:53:27.725Z,35.72
2022-12-23T11:54:01.369Z,36.55
2022-12-23T11:54:36.996Z,36.95
2022-12-23T11:55:23.840Z,37.60
2022-12-23T11:56:04.153Z,34.40
2022-12-23T11:57:19.300Z,35.08
2022-12-23T11:57:52.760Z,33.92
2022-12-23T11:58:26.041Z,33.15
2022-12-23T11:59:06.511Z,37.22
2022-12-23T11:59:40.956Z,36.90
2022-12-23T12:00:20.929Z,34.13
2022-12-23T12:00:59.959Z,33.40
2022-12-23T12:01:33.295Z,33.30
2022-12-23T12:02:16.881Z,34.58
2022-12-23T12:02:52.437Z,34.90
2022-12-23T12:03:34.533Z,35.28
2022-12-23T12:04:09.472Z,32.75
2022-12-23T12:04:42.763Z,35.08
2022-12-23T12:05:23.063Z,34.30
2022-12-23T12:06:34.747Z,35.47
2022-12-23T12:07:12.267Z,36.47
2022-12-23T12:07:48.011Z,33.72
2022-12-23T12:08:24.879Z,36.60
2022-12-23T12:09:03.190Z,33.38
2022-12-23T12:09:41.464Z,36.63
2022-12-23T12:10:21.693Z,35.35
2022-12-23T12:10:59.862Z,35.55
2022-12-23T12:11:40.634Z,35.35
2022-12-23T12:12:16.868Z,35.42
2022-12-23T12:12:55.188Z,36.28
2022-12-23T12:13:31.136Z,36.88
2022-12-23T12:14:07.755Z,36.50
2022-12-23T12:14:43.943Z,35.00
2022-12-23T12:15:32.277Z,37.75
2022-12-23T12:16:17.323Z,37.05
2022-12-23T12:16:56.574Z,38.95
2022-12-23T12:17:38.712Z,37.72
2022-12-23T12:18:14.870Z,35.63
2022-12-23T12:18:55.490Z,37.63
2022-12-23T12:19:36.785Z,37.00
2022-12-23T12:20:14.706Z,35.75
2022-12-23T12:20:54.408Z,33.88
2022-12-23T12:21:31.583Z,34.97
2022-12-23T12:22:17.070Z,38.25
2022-12-23T12:22:52.643Z,38.58
2022-12-23T12:23:32.744Z,37.25
2022-12-23T12:24:18.928Z,35.40
2022-12-23T12:24:58.332Z,36.25
2022-12-23T12:25:39.912Z,37.83
2022-12-23T12:26:23.091Z,37.08
2022-12-23T12:27:00.858Z,38.38
2022-12-23T12:27:38.077Z,36.90
2022-12-23T12:28:16.441Z,38.78
2022-12-23T12:28:56.887Z,39.20
2022-12-23T12:30:11.368Z,36.10
2022-12-23T12:30:53.149Z,36.47
2022-12-23T12:31:30.193Z,35.13
2022-12-23T12:32:06.819Z,40.10
2022-12-23T12:32:47.297Z,35.70
2022-12-23T12:34:05.293Z,37.83
2022-12-23T12:34:46.740Z,35.92
2022-12-23T12:35:27.348Z,36.47
2022-12-23T12:36:14.171Z,36.88
2022-12-23T12:36:50.958Z,35.65
2022-12-23T12:37:36.244Z,37.38
2022-12-23T12:38:17.360Z,35.13
2022-12-23T12:38:53.430Z,34.83
2022-12-23T12:39:31.192Z,36.30
2022-12-23T12:40:26.103Z,36.33
2022-12-23T12:41:01.793Z,37.85
2022-12-23T12:41:41.087Z,35.85
2022-12-23T12:42:17.459Z,40.65
2022-12-23T12:42:56.957Z,37.90
2022-12-23T12:43:34.264Z,37.10
2022-12-23T12:44:20.878Z,37.42
2022-12-23T12:45:01.268Z,39.20
2022-12-23T12:46:27.530Z,35.83
2022-12-23T12:47:28.182Z,35.78
2022-12-23T12:48:18.755Z,33.65
2022-12-23T12:48:57.892Z,36.25
2022-12-23T12:49:41.485Z,39.88
2022-12-23T12:50:17.632Z,36.95
2022-12-23T12:51:02.027Z,34.63
2022-12-23T12:51:40.920Z,37.08
2022-12-23T12:52:18.592Z,34.55
2022-12-23T12:52:54.292Z,39.30
2022-12-23T12:53:28.546Z,37.33
2022-12-23T12:54:07.977Z,36.50
2022-12-23T12:54:45.779Z,36.30
2022-12-23T12:55:28.044Z,35.65
2022-12-23T12:56:07.397Z,33.80
2022-12-23T12:56:49.239Z,36.40
2022-12-23T12:57:23.472Z,36.67
2022-12-23T12:57:55.764Z,37.45
2022-12-23T12:58:31.204Z,37.80
2022-12-23T12:59:03.836Z,35.20
2022-12-23T12:59:38.257Z,36.72
2022-12-23T13:00:19.234Z,35.53
2022-12-23T13:01:13.599Z,37.22
2022-12-23T13:02:18.999Z,35.75
2022-12-23T13:03:18.297Z,35.58
2022-12-23T13:04:10.018Z,37.03
2022-12-23T13:05:08.343Z,35.78
2022-12-23T13:06:04.901Z,38.90
2022-12-23T13:06:44.563Z,36.72
2022-12-23T13:07:28.177Z,35.38
2022-12-23T13:08:18.313Z,36.38
2022-12-23T13:09:04.004Z,34.70
2022-12-23T13:09:53.448Z,34.30
2022-12-23T13:10:37.103Z,33.95
2022-12-23T13:11:22.136Z,35.53
2022-12-23T13:12:14.812Z,33.05
2022-12-23T13:12:57.821Z,36.90
2022-12-23T13:13:42.084Z,34.15
2022-12-23T13:14:26.948Z,34.97
2022-12-23T13:15:05.750Z,32.15
2022-12-23T13:15:49.289Z,35.42
2022-12-23T13:16:32.259Z,33.92
2022-12-23T13:17:15.550Z,35.03
2022-12-23T13:18:04.292Z,33.67
2022-12-23T13:18:46.837Z,34.20
2022-12-23T13:19:31.874Z,35.80
2022-12-23T13:20:19.251Z,40.40
2022-12-23T13:21:00.128Z,34.05
2022-12-23T13:21:45.061Z,36.25
2022-12-23T13:22:18.262Z,35.67
2022-12-23T13:23:20.858Z,35.35
2022-12-23T13:24:05.871Z,36.33
2022-12-23T13:24:51.774Z,36.28
2022-12-23T13:25:32.311Z,36.45
2022-12-23T13:26:14.225Z,35.03
2022-12-23T13:27:06.850Z,38.08
2022-12-23T13:27:47.407Z,36.67
2022-12-23T13:28:35.914Z,40.78
2022-12-23T13:29:46.520Z,38.88
2022-12-23T13:30:21.695Z,35.63
2022-12-23T13:31:04.908Z,34.78
2022-12-23T13:31:48.057Z,35.63
2022-12-23T13:32:33.753Z,36.50
2022-12-23T13:33:25.867Z,38.80
2022-12-23T13:34:07.411Z,39.05
2022-12-23T13:34:49.902Z,36.22
2022-12-23T13:35:57.319Z,37.10
2022-12-23T13:36:42.067Z,37.78
2022-12-23T13:37:28.542Z,36.83
2022-12-23T13:38:11.575Z,37.25
2022-12-23T13:38:56.991Z,41.95
2022-12-23T13:39:43.075Z,39.50
2022-12-23T13:40:31.737Z,41.47
2022-12-23T13:41:09.248Z,39.85
2022-12-23T13:41:48.066Z,40.90
2022-12-23T13:42:27.686Z,41.58
2022-12-23T13:43:07.496Z,41.47
2022-12-23T13:43:46.721Z,41.58
2022-12-23T13:44:22.252Z,41.67
2022-12-23T13:44:55.660Z,44.60
2022-12-23T13:45:34.116Z,42.97
2022-12-23T13:46:15.390Z,42.13
2022-12-23T13:46:59.485Z,41.80
2022-12-23T13:47:47.336Z,40.15
2022-12-23T13:48:33.681Z,41.35
2022-12-23T13:49:17.607Z,40.67
2022-12-23T13:49:57.958Z,40.63
2022-12-23T13:51:17.825Z,39.35
2022-12-23T13:51:58.027Z,37.63
2022-12-23T13:52:43.947Z,38.08
2022-12-23T13:53:24.039Z,41.15
2022-12-23T13:54:04.782Z,39.78
2022-12-23T13:54:52.551Z,39.83
2022-12-23T13:55:44.537Z,41.58
2022-12-23T13:56:27.979Z,38.25
2022-12-23T13:57:08.647Z,37.35
2022-12-23T13:57:50.828Z,41.25
2022-12-23T13:58:26.752Z,39.40
2022-12-23T13:59:02.365Z,41.28
2022-12-23T13:59:40.198Z,43.63
2022-12-23T14:00:30.487Z,41.17
2022-12-23T14:01:22.718Z,41.65
2022-12-23T14:01:57.492Z,39.72
2022-12-23T14:02:48.424Z,41.42
2022-12-23T14:03:27.254Z,41.55
2022-12-23T14:04:30.832Z,44.67
2022-12-23T14:05:13.118Z,42.65
2022-12-23T14:05:51.953Z,42.67
2022-12-23T14:06:45.861Z,42.33
2022-12-23T14:07:20.943Z,42.85
2022-12-23T14:07:54.621Z,44.28
2022-12-23T14:08:36.171Z,42.00
2022-12-23T14:09:15.845Z,39.60
2022-12-23T14:09:54.905Z,44.40
2022-12-23T14:10:28.076Z,41.05
2022-12-23T14:11:02.912Z,44.03
2022-12-23T14:11:37.843Z,39.63